Terminal Aerodrome Forecast
Issued by NWS Lake Charles, LA

Home | Current Version | Previous Version | Text Only | Print | Product List | Glossary On
Versions: 1 2 3 4 5 6 7 8 9 10 11 12 13 14 15 16 17 18
953
FTUS44 KLCH 280020 AAA
TAFLFT
TAF AMD
KLFT 280020Z 2800/2824 18007KT P6SM FEW025
     FM280900 VRB03KT 4SM BR OVC011
     FM281500 16007KT P6SM BKN015
     FM281800 17008KT P6SM OVC050=

USA.gov is the U.S. government's official web portal to all federal, state and local government web resources and services.